Orient Crusader — 5BZN2 — position and weather

sailwx.info

Track history (hours):
 
Tides and Currents Weather Stations Pressure Air Temp Water Temp Dewpoint Dewpoint Depression Visibility Wind Speed Wind Dir Waves Ship Positions

Orient Crusader

Last reported at 2017-Dec-07 14:30 UTC. Time now 2017-Dec-18 14:28 UTC.
Position N 36°16' W 026°13'.
Warning: this ship's position is 10 days out of date.

Length 255 m; draft 7.6 m.

Type: Cargo ship. MMSI: 209038000.

Date/timePositionNaut miles runAvg speedWind from/ knotsBaromVisibWave heightAir tempDewpointWater temp
2017-Dec-07 14:30N 36°16' W 026°13'5 9.7
2017-Dec-07 14:00N 36°16' W 026°07'5 9.5
2017-Dec-07 13:30N 36°16' W 026°01'5 9.9
2017-Dec-07 13:00N 36°16' W 025°55'5 9.7
2017-Dec-07 12:30N 36°16' W 025°49'510.0
2017-Dec-07 12:00N 36°16' W 025°43'5 9.9
2017-Dec-07 11:30N 36°16' W 025°37'510.2
2017-Dec-07 11:00N 36°15' W 025°31'510.4
2017-Dec-07 10:30N 36°15' W 025°24'510.2
2017-Dec-07 10:00N 36°15' W 025°18'510.1
2017-Dec-07 09:31N 36°15' W 025°12'510.3
2017-Dec-07 09:00N 36°16' W 025°05'510.2
2017-Dec-07 08:30N 36°16' W 024°59'510.5
2017-Dec-07 08:01N 36°16' W 024°52'510.7
2017-Dec-07 07:30N 36°15' W 024°46'510.6
2017-Dec-07 07:00N 36°15' W 024°39'510.5
2017-Dec-07 06:30N 36°15' W 024°33'510.3
2017-Dec-07 06:00N 36°15' W 024°26'510.3
2017-Dec-07 05:30N 36°14' W 024°20'510.3
2017-Dec-07 05:00N 36°14' W 024°13'510.4
2017-Dec-07 04:30N 36°14' W 024°07'510.3
2017-Dec-07 04:01N 36°14' W 024°01'610.3
2017-Dec-07 03:28N 36°14' W 023°54'  
2017-Dec-03 15:56N 35°58' W 005°34'4 9.7
2017-Dec-03 15:30N 35°59' W 005°29'5 9.2
2017-Dec-03 15:00N 36°01' W 005°24'5 9.3
2017-Dec-03 14:30N 36°01' W 005°18'5 9.2
2017-Dec-03 14:00N 36°02' W 005°13'  
2017-Nov-29 14:50N 36°10' E 013°40'410.8
2017-Nov-29 14:30N 36°08' E 013°44'510.8
2017-Nov-29 14:00N 36°05' E 013°49'511.0
2017-Nov-29 13:30N 36°02' E 013°54'510.8
2017-Nov-29 13:00N 35°59' E 013°60'511.0
2017-Nov-29 12:30N 35°55' E 014°05'611.0
2017-Nov-29 12:00N 35°52' E 014°11'510.7
2017-Nov-29 11:30N 35°49' E 014°16'611.3
2017-Nov-29 11:00N 35°46' E 014°22'10 9.5
2017-Nov-29 09:55N 35°48' E 014°34'3 0.2
2017-Nov-28 18:10N 35°50' E 014°36'1 4.1
2017-Nov-28 18:00N 35°51' E 014°36'5 9.8
2017-Nov-28 17:30N 35°55' E 014°39'713.6
2017-Nov-28 17:00N 35°59' E 014°46'  
Track history (hours):
 
Tides and Currents Weather Stations Pressure Air Temp Water Temp Dewpoint Dewpoint Depression Visibility Wind Speed Wind Dir Waves Ship Positions

Orient Crusader

Last reported at 2017-Dec-07 14:30 UTC. Time now 2017-Dec-18 14:28 UTC.
Position N 36°16' W 026°13'.
Warning: this ship's position is 10 days out of date.

Length 255 m; draft 7.6 m.

Type: Cargo ship. MMSI: 209038000.

Date/timePositionNaut miles runAvg speedWind from/ knotsBaromVisibWave heightAir tempDewpointWater temp
2017-Dec-07 14:30N 36°16' W 026°13'5 9.7
2017-Dec-07 14:00N 36°16' W 026°07'5 9.5
2017-Dec-07 13:30N 36°16' W 026°01'5 9.9
2017-Dec-07 13:00N 36°16' W 025°55'5 9.7
2017-Dec-07 12:30N 36°16' W 025°49'510.0
2017-Dec-07 12:00N 36°16' W 025°43'5 9.9
2017-Dec-07 11:30N 36°16' W 025°37'510.2
2017-Dec-07 11:00N 36°15' W 025°31'510.4
2017-Dec-07 10:30N 36°15' W 025°24'510.2
2017-Dec-07 10:00N 36°15' W 025°18'510.1
2017-Dec-07 09:31N 36°15' W 025°12'510.3
2017-Dec-07 09:00N 36°16' W 025°05'510.2
2017-Dec-07 08:30N 36°16' W 024°59'510.5
2017-Dec-07 08:01N 36°16' W 024°52'510.7
2017-Dec-07 07:30N 36°15' W 024°46'510.6
2017-Dec-07 07:00N 36°15' W 024°39'510.5
2017-Dec-07 06:30N 36°15' W 024°33'510.3
2017-Dec-07 06:00N 36°15' W 024°26'510.3
2017-Dec-07 05:30N 36°14' W 024°20'510.3
2017-Dec-07 05:00N 36°14' W 024°13'510.4
2017-Dec-07 04:30N 36°14' W 024°07'510.3
2017-Dec-07 04:01N 36°14' W 024°01'610.3
2017-Dec-07 03:28N 36°14' W 023°54'  
2017-Dec-03 15:56N 35°58' W 005°34'4 9.7
2017-Dec-03 15:30N 35°59' W 005°29'5 9.2
2017-Dec-03 15:00N 36°01' W 005°24'5 9.3
2017-Dec-03 14:30N 36°01' W 005°18'5 9.2
2017-Dec-03 14:00N 36°02' W 005°13'  
2017-Nov-29 14:50N 36°10' E 013°40'410.8
2017-Nov-29 14:30N 36°08' E 013°44'510.8
2017-Nov-29 14:00N 36°05' E 013°49'511.0
2017-Nov-29 13:30N 36°02' E 013°54'510.8
2017-Nov-29 13:00N 35°59' E 013°60'511.0
2017-Nov-29 12:30N 35°55' E 014°05'611.0
2017-Nov-29 12:00N 35°52' E 014°11'510.7
2017-Nov-29 11:30N 35°49' E 014°16'611.3
2017-Nov-29 11:00N 35°46' E 014°22'10 9.5
2017-Nov-29 09:55N 35°48' E 014°34'3 0.2
2017-Nov-28 18:10N 35°50' E 014°36'1 4.1
2017-Nov-28 18:00N 35°51' E 014°36'5 9.8
2017-Nov-28 17:30N 35°55' E 014°39'713.6
2017-Nov-28 17:00N 35°59' E 014°46'  

Dump ship's entire track history